createdAt,value
2019-03-17T00:01:58.077Z,68.09
2019-03-17T00:06:59.734Z,68.08
2019-03-17T00:12:01.431Z,68.01
2019-03-17T00:17:03.288Z,68.06
2019-03-17T00:22:04.960Z,68.03
2019-03-17T00:27:06.644Z,68.02
2019-03-17T00:32:08.201Z,68.09
2019-03-17T00:37:09.929Z,68.11
2019-03-17T00:42:11.514Z,68.06
2019-03-17T00:47:13.241Z,68.00
2019-03-17T00:52:14.857Z,68.00
2019-03-17T00:57:18.818Z,68.04
2019-03-17T01:02:20.416Z,68.04
2019-03-17T01:07:22.064Z,68.03
2019-03-17T01:12:23.672Z,68.02
2019-03-17T01:17:25.289Z,67.96
2019-03-17T01:22:26.838Z,67.92
2019-03-17T01:27:28.397Z,68.00
2019-03-17T01:32:29.987Z,67.94
2019-03-17T01:37:31.549Z,67.83
2019-03-17T01:42:35.110Z,67.83
2019-03-17T01:47:36.937Z,67.83
2019-03-17T01:52:38.513Z,67.96
2019-03-17T01:57:40.103Z,67.80
2019-03-17T02:02:41.652Z,67.99
2019-03-17T02:07:43.221Z,68.02
2019-03-17T02:12:44.913Z,67.96
2019-03-17T02:17:46.538Z,67.94
2019-03-17T02:22:48.108Z,67.95
2019-03-17T02:27:49.705Z,67.95
2019-03-17T02:32:51.277Z,67.96
2019-03-17T02:37:52.827Z,67.96
2019-03-17T02:42:54.392Z,68.02
2019-03-17T02:47:56.062Z,68.06
2019-03-17T02:52:57.672Z,68.07
2019-03-17T02:57:59.231Z,68.15
2019-03-17T03:03:00.805Z,68.15
2019-03-17T03:08:02.576Z,68.18
2019-03-17T03:13:04.177Z,68.21
2019-03-17T03:18:05.754Z,68.22
2019-03-17T03:23:07.303Z,68.22
2019-03-17T03:28:08.851Z,68.25
2019-03-17T03:33:10.523Z,68.29
2019-03-17T03:38:12.220Z,68.34
2019-03-17T03:43:13.755Z,68.36
2019-03-17T03:48:15.332Z,68.37
2019-03-17T03:53:16.894Z,68.35
2019-03-17T03:58:18.480Z,68.37
2019-03-17T04:03:20.023Z,68.42
2019-03-17T04:08:21.603Z,68.43
2019-03-17T04:13:23.220Z,68.47
2019-03-17T04:18:24.830Z,68.54
2019-03-17T04:23:26.418Z,68.55
2019-03-17T04:28:28.092Z,68.59
2019-03-17T04:33:29.670Z,68.59
2019-03-17T04:38:31.238Z,68.67
2019-03-17T04:43:32.882Z,68.66
2019-03-17T04:48:34.431Z,68.61
2019-03-17T04:53:35.997Z,68.63
2019-03-17T04:58:37.572Z,68.68
2019-03-17T05:03:39.140Z,68.70
2019-03-17T05:08:40.720Z,68.74
2019-03-17T05:13:42.366Z,68.70
2019-03-17T05:18:44.025Z,68.67
2019-03-17T05:23:45.587Z,68.73
2019-03-17T05:28:47.137Z,68.69
2019-03-17T05:33:48.695Z,68.67
2019-03-17T05:38:50.346Z,68.65
2019-03-17T05:43:51.907Z,68.61
2019-03-17T05:48:53.453Z,68.57
2019-03-17T05:53:55.099Z,68.51
2019-03-17T05:58:56.656Z,68.51
2019-03-17T06:03:58.239Z,68.51
2019-03-17T06:08:59.888Z,68.49
2019-03-17T06:14:01.448Z,68.46
2019-03-17T06:19:03.130Z,68.40
2019-03-17T06:24:04.800Z,68.31
2019-03-17T06:29:06.479Z,68.24
2019-03-17T06:34:08.025Z,68.18
2019-03-17T06:39:09.591Z,68.08
2019-03-17T06:44:11.141Z,68.04
2019-03-17T06:49:12.706Z,67.99
2019-03-17T06:54:14.631Z,67.95
2019-03-17T06:59:17.622Z,67.91
2019-03-17T07:04:19.441Z,67.85
2019-03-17T07:09:21.032Z,67.78
2019-03-17T07:14:22.594Z,67.73
2019-03-17T07:19:24.148Z,67.64
2019-03-17T07:24:25.707Z,67.53
2019-03-17T07:29:27.353Z,67.41
2019-03-17T07:34:28.931Z,67.28
2019-03-17T07:39:30.589Z,67.12
2019-03-17T07:44:32.139Z,67.03
2019-03-17T07:49:33.702Z,66.92
2019-03-17T07:54:35.346Z,66.78
2019-03-17T07:59:36.928Z,66.69
2019-03-17T08:04:43.791Z,66.58
2019-03-17T08:09:42.051Z,66.42
2019-03-17T08:14:43.609Z,66.26
2019-03-17T08:19:45.192Z,66.09
2019-03-17T08:24:46.858Z,65.95
2019-03-17T08:29:48.504Z,65.85
2019-03-17T08:34:50.107Z,65.75
2019-03-17T08:39:51.640Z,65.65
2019-03-17T08:44:53.196Z,65.49
2019-03-17T08:49:54.773Z,65.27
2019-03-17T08:54:56.444Z,65.15
2019-03-17T08:59:58.036Z,64.95
2019-03-17T09:04:59.606Z,64.77
2019-03-17T09:10:01.361Z,64.68
2019-03-17T09:15:03.344Z,64.53
2019-03-17T09:20:05.132Z,64.31
2019-03-17T09:25:07.732Z,64.06
2019-03-17T09:30:11.522Z,63.95
2019-03-17T09:35:13.194Z,63.92
2019-03-17T09:40:14.883Z,63.78
2019-03-17T09:45:16.431Z,63.77
2019-03-17T09:50:18.144Z,63.58
2019-03-17T09:55:19.694Z,63.40
2019-03-17T10:00:21.263Z,63.14
2019-03-17T10:05:22.894Z,63.02
2019-03-17T10:10:24.440Z,62.79
2019-03-17T10:15:26.099Z,62.64
2019-03-17T10:20:27.732Z,62.37
2019-03-17T10:25:29.344Z,61.93
2019-03-17T10:30:30.903Z,61.68
2019-03-17T10:35:32.484Z,61.67
2019-03-17T10:40:34.033Z,61.69
2019-03-17T10:45:35.627Z,61.62
2019-03-17T10:50:49.083Z,61.48
2019-03-17T10:55:40.662Z,61.63
2019-03-17T11:00:42.215Z,61.71
2019-03-17T11:05:43.758Z,61.47
2019-03-17T11:10:45.291Z,61.32
2019-03-17T11:15:46.854Z,61.34
2019-03-17T11:20:48.404Z,61.00
2019-03-17T11:25:49.963Z,60.11
2019-03-17T11:30:56.831Z,59.79
2019-03-17T11:35:58.380Z,59.84
2019-03-17T11:40:59.953Z,60.03
2019-03-17T11:46:01.727Z,60.11
2019-03-17T11:51:03.381Z,60.44
2019-03-17T11:56:05.097Z,60.42
2019-03-17T12:01:06.741Z,60.59
2019-03-17T12:06:08.459Z,60.33
2019-03-17T12:11:10.213Z,60.60
2019-03-17T12:16:11.941Z,60.62
2019-03-17T12:21:13.606Z,60.70
2019-03-17T12:26:17.170Z,60.94
2019-03-17T12:31:18.860Z,61.14
2019-03-17T12:36:20.936Z,61.23
2019-03-17T12:41:22.528Z,61.25
2019-03-17T12:46:24.237Z,61.21
2019-03-17T12:51:25.836Z,61.19
2019-03-17T12:56:27.441Z,61.22
2019-03-17T13:01:29.030Z,61.28
2019-03-17T13:06:30.643Z,61.37
2019-03-17T13:11:32.891Z,61.47
2019-03-17T13:16:34.647Z,61.70
2019-03-17T13:21:39.116Z,61.82
2019-03-17T13:26:40.722Z,61.85
2019-03-17T13:31:42.374Z,61.83
2019-03-17T13:36:46.595Z,61.99
2019-03-17T13:41:47.570Z,62.19
2019-03-17T13:46:49.147Z,62.42
2019-03-17T13:51:50.725Z,62.58
2019-03-17T13:56:52.269Z,62.66
2019-03-17T14:01:53.860Z,62.85
2019-03-17T14:06:55.526Z,62.92
2019-03-17T14:11:57.212Z,62.99
2019-03-17T14:16:58.886Z,63.06
2019-03-17T14:22:00.558Z,63.17
2019-03-17T14:27:02.117Z,63.50
2019-03-17T14:32:03.899Z,63.88
2019-03-17T14:37:05.602Z,64.01
2019-03-17T14:42:07.173Z,64.21
2019-03-17T14:47:08.756Z,64.20
2019-03-17T14:52:10.478Z,64.30
2019-03-17T14:57:12.173Z,64.34
2019-03-17T15:02:13.788Z,64.34
2019-03-17T15:07:15.452Z,64.51
2019-03-17T15:12:17.030Z,64.75
2019-03-17T15:17:18.597Z,64.75
2019-03-17T15:22:20.208Z,64.93
2019-03-17T15:27:21.900Z,64.96
2019-03-17T15:32:23.454Z,65.28
2019-03-17T15:37:25.155Z,65.48
2019-03-17T15:42:26.843Z,65.30
2019-03-17T15:47:28.753Z,65.19
2019-03-17T15:52:30.453Z,65.11
2019-03-17T15:57:32.044Z,64.98
2019-03-17T16:02:33.702Z,65.04
2019-03-17T16:07:42.218Z,65.00
2019-03-17T16:12:39.012Z,65.01
2019-03-17T16:17:40.583Z,65.01
2019-03-17T16:22:42.273Z,65.16
2019-03-17T16:27:44.052Z,65.17
2019-03-17T16:32:45.743Z,65.21
2019-03-17T16:37:47.420Z,65.34
2019-03-17T16:42:49.024Z,65.24
2019-03-17T16:47:50.873Z,65.32
2019-03-17T16:52:52.914Z,65.33
2019-03-17T16:57:54.595Z,65.39
2019-03-17T17:02:56.378Z,65.44
2019-03-17T17:07:57.983Z,65.38
2019-03-17T17:12:59.625Z,65.29
2019-03-17T17:18:01.230Z,65.26
2019-03-17T17:23:03.177Z,65.32
2019-03-17T17:28:04.902Z,65.28
2019-03-17T17:33:06.808Z,65.34
2019-03-17T17:38:08.514Z,65.28
2019-03-17T17:43:10.242Z,65.29
2019-03-17T17:48:11.899Z,65.23
2019-03-17T17:53:13.598Z,65.43
2019-03-17T17:58:15.214Z,65.54
2019-03-17T18:03:16.964Z,65.62
2019-03-17T18:08:18.543Z,65.45
2019-03-17T18:13:20.318Z,65.30
2019-03-17T18:18:21.985Z,65.20
2019-03-17T18:23:23.763Z,65.15
2019-03-17T18:28:25.563Z,65.11
2019-03-17T18:33:27.926Z,65.04
2019-03-17T18:38:30.959Z,65.12
2019-03-17T18:43:33.866Z,65.09
2019-03-17T18:48:35.458Z,65.04
2019-03-17T18:53:37.071Z,65.02
2019-03-17T18:58:38.848Z,65.02
2019-03-17T19:03:40.449Z,65.04
2019-03-17T19:08:42.053Z,65.07
2019-03-17T19:13:43.620Z,65.07
2019-03-17T19:18:45.186Z,65.14
2019-03-17T19:23:47.032Z,65.07
2019-03-17T19:28:48.699Z,65.14
2019-03-17T19:33:50.419Z,65.06
2019-03-17T19:38:52.017Z,65.08
2019-03-17T19:43:53.604Z,65.14
2019-03-17T19:48:55.176Z,65.28
2019-03-17T19:53:56.785Z,65.52
2019-03-17T19:58:59.189Z,65.64
2019-03-17T20:04:00.756Z,65.61
2019-03-17T20:09:05.794Z,65.91
2019-03-17T20:14:07.360Z,66.04
2019-03-17T20:19:09.043Z,66.04
2019-03-17T20:24:11.817Z,66.03
2019-03-17T20:29:13.411Z,66.16
2019-03-17T20:34:15.018Z,66.20
2019-03-17T20:39:16.574Z,65.89
2019-03-17T20:44:18.138Z,65.74
2019-03-17T20:49:19.715Z,65.88
2019-03-17T20:54:21.276Z,65.91
2019-03-17T20:59:23.013Z,65.76
2019-03-17T21:04:24.652Z,65.69
2019-03-17T21:09:26.250Z,65.75
2019-03-17T21:14:27.819Z,65.73
2019-03-17T21:19:29.414Z,65.68
2019-03-17T21:24:31.045Z,65.65
2019-03-17T21:29:32.654Z,65.62
2019-03-17T21:34:34.289Z,65.65
2019-03-17T21:39:35.926Z,65.72
2019-03-17T21:44:37.557Z,65.68
2019-03-17T21:49:39.150Z,65.62
2019-03-17T21:54:40.760Z,65.58
2019-03-17T21:59:42.407Z,65.61
2019-03-17T22:04:44.016Z,65.62
2019-03-17T22:09:45.555Z,65.69
2019-03-17T22:14:47.222Z,65.70
2019-03-17T22:19:48.887Z,65.67
2019-03-17T22:24:50.555Z,65.63
2019-03-17T22:29:52.137Z,65.65
2019-03-17T22:34:53.800Z,65.77
2019-03-17T22:39:55.376Z,65.85
2019-03-17T22:44:57.023Z,66.07
2019-03-17T22:49:58.626Z,66.12
2019-03-17T22:55:00.480Z,66.09
2019-03-17T23:00:03.395Z,66.15
2019-03-17T23:05:05.109Z,66.18
2019-03-17T23:10:07.800Z,66.20
2019-03-17T23:15:09.544Z,66.17
2019-03-17T23:20:11.484Z,66.22
2019-03-17T23:31:34.629Z,66.24
2019-03-17T23:36:36.181Z,66.20
2019-03-17T23:41:37.751Z,66.22
2019-03-17T23:46:39.385Z,66.33
2019-03-17T23:51:40.998Z,66.33
2019-03-17T23:56:42.587Z,66.39
